Time;durP1;ratioP1;P1;durP2;ratioP2;P2;SDS_P1;SDS_P2;PMS_P1;PMS_P2;Temp;Humidity;BMP_temperature;BMP_pressure;BME280_temperature;BME280_humidity;BME280_pressure;Samples;Min_cycle;Max_cycle;Signal;HPM_P1;HPM_P2
2023/05/14 00:00:27;;;;;;;6.17;5.50;;;;;12.30;96986.00;;;;5071999;28;20242;-64
2023/05/14 00:03:18;;;;;;;6.33;5.73;;;;;12.40;96991.00;;;;5086135;28;20238;-64
2023/05/14 00:06:07;;;;;;;7.20;6.10;;;;;12.40;96973.00;;;;5085311;28;20203;-64
2023/05/14 00:08:57;;;;;;;6.07;5.03;;;;;12.40;96963.00;;;;5093157;28;20223;-64
2023/05/14 00:11:46;;;;;;;8.00;7.20;;;;;12.20;96961.00;;;;5090541;28;20388;-64
2023/05/14 00:14:35;;;;;;;7.93;6.82;;;;;12.30;96955.00;;;;5084248;28;20558;-64
2023/05/14 00:17:24;;;;;;;8.17;5.77;;;;;12.50;96960.00;;;;5085126;28;20223;-64
2023/05/14 00:20:14;;;;;;;6.47;5.67;;;;;12.60;96950.00;;;;5085412;28;20211;-64
2023/05/14 00:23:03;;;;;;;6.90;5.73;;;;;12.60;96945.00;;;;5085350;28;20210;-64
2023/05/14 00:25:52;;;;;;;10.00;5.63;;;;;12.60;96948.00;;;;5085904;28;20666;-64
2023/05/14 00:28:41;;;;;;;8.33;5.70;;;;;12.50;96937.00;;;;5081439;28;20226;-64
2023/05/14 00:31:30;;;;;;;6.23;4.47;;;;;12.20;96930.00;;;;5083167;28;20670;-64
2023/05/14 00:34:19;;;;;;;6.07;5.20;;;;;12.00;96930.00;;;;5083836;28;20196;-64
2023/05/14 00:37:10;;;;;;;6.33;5.33;;;;;12.00;96930.00;;;;5086550;28;20305;-65
2023/05/14 00:39:59;;;;;;;7.73;5.37;;;;;12.20;96923.00;;;;5087145;28;20207;-64
2023/05/14 00:42:48;;;;;;;6.93;5.37;;;;;12.20;96923.00;;;;5083073;28;20210;-64
2023/05/14 00:45:37;;;;;;;5.67;5.13;;;;;12.10;96924.00;;;;5088865;28;20207;-64
2023/05/14 00:48:26;;;;;;;6.07;5.47;;;;;12.20;96925.00;;;;5087630;28;20276;-64
2023/05/14 00:51:15;;;;;;;6.87;5.93;;;;;12.30;96911.00;;;;5080960;28;20235;-65
2023/05/14 00:54:06;;;;;;;8.33;5.23;;;;;12.10;96919.00;;;;5090066;28;20679;-64
2023/05/14 00:56:55;;;;;;;5.87;5.37;;;;;12.30;96920.00;;;;5090416;28;20222;-64
2023/05/14 00:59:45;;;;;;;5.80;5.03;;;;;12.50;96921.00;;;;5091840;28;20203;-64
2023/05/14 01:02:34;;;;;;;6.00;5.30;;;;;12.50;96916.00;;;;5083856;28;20215;-64
2023/05/14 01:05:24;;;;;;;6.67;5.83;;;;;12.60;96911.00;;;;5086813;28;20202;-64
2023/05/14 01:08:18;;;;;;;6.20;5.17;;;;;12.60;96902.00;;;;5087094;28;20223;-64
2023/05/14 01:11:14;;;;;;;7.20;5.77;;;;;12.50;96899.00;;;;5086837;28;20218;-64
2023/05/14 01:14:10;;;;;;;5.90;5.30;;;;;12.40;96909.00;;;;5085777;28;20206;-64
2023/05/14 01:17:01;;;;;;;5.43;4.93;;;;;12.60;96901.00;;;;5083755;28;20218;-64
2023/05/14 01:19:50;;;;;;;6.77;5.50;;;;;12.60;96907.00;;;;5086199;28;20203;-64
2023/05/14 01:22:41;;;;;;;7.03;4.93;;;;;12.60;96890.00;;;;5085566;28;20199;-64
2023/05/14 01:25:31;;;;;;;6.37;5.40;;;;;12.60;96893.00;;;;5083236;28;20196;-64
2023/05/14 01:28:22;;;;;;;7.53;5.83;;;;;12.50;96884.00;;;;5084520;28;20219;-64
2023/05/14 01:31:15;;;;;;;4.77;4.33;;;;;12.30;96887.00;;;;5085312;28;20706;-64
2023/05/14 01:34:05;;;;;;;6.60;6.00;;;;;12.50;96884.00;;;;5085673;28;20199;-64
2023/05/14 01:36:54;;;;;;;5.30;4.80;;;;;12.60;96882.00;;;;5083192;28;20231;-64
2023/05/14 01:39:46;;;;;;;7.20;5.17;;;;;12.60;96884.00;;;;5086228;28;20210;-64
2023/05/14 01:42:35;;;;;;;7.00;5.80;;;;;12.40;96884.00;;;;5088238;28;20202;-64
2023/05/14 01:45:25;;;;;;;6.10;5.50;;;;;12.40;96874.00;;;;5088960;28;20203;-65
2023/05/14 01:48:14;;;;;;;5.83;5.13;;;;;12.60;96876.00;;;;5081532;28;20310;-64
2023/05/14 01:51:04;;;;;;;8.10;5.07;;;;;12.60;96871.00;;;;5094531;28;20718;-64
2023/05/14 01:53:53;;;;;;;5.67;4.83;;;;;12.50;96873.00;;;;5087818;28;20195;-64
2023/05/14 01:56:43;;;;;;;7.77;5.53;;;;;12.30;96877.00;;;;5083529;28;20590;-64
2023/05/14 01:59:32;;;;;;;7.03;5.83;;;;;12.20;96878.00;;;;5084986;28;20203;-64
2023/05/14 02:02:21;;;;;;;8.00;5.57;;;;;12.30;96870.00;;;;5086176;28;20687;-67
2023/05/14 02:05:11;;;;;;;6.33;5.07;;;;;12.40;96876.00;;;;5088718;28;20202;-67
2023/05/14 02:08:00;;;;;;;6.13;5.33;;;;;12.30;96872.00;;;;5084284;28;20231;-67
2023/05/14 02:10:49;;;;;;;6.00;4.67;;;;;12.30;96882.00;;;;5083578;28;20227;-64
2023/05/14 02:13:39;;;;;;;5.90;5.30;;;;;12.40;96869.00;;;;5085536;28;20199;-64
2023/05/14 02:16:28;;;;;;;4.40;3.97;;;;;12.50;96863.00;;;;5083230;28;20610;-64
2023/05/14 02:19:18;;;;;;;7.73;5.23;;;;;12.40;96855.00;;;;5086210;28;20581;-64
2023/05/14 02:22:07;;;;;;;5.50;4.90;;;;;12.50;96866.00;;;;5083232;28;20202;-64
2023/05/14 02:24:56;;;;;;;5.23;4.37;;;;;12.50;96857.00;;;;5083664;28;20292;-64
2023/05/14 02:27:44;;;;;;;5.33;4.80;;;;;12.60;96859.00;;;;5081412;28;20243;-64
2023/05/14 02:30:35;;;;;;;7.33;5.57;;;;;12.60;96860.00;;;;5082720;28;20674;-65
2023/05/14 02:33:24;;;;;;;5.87;4.73;;;;;12.60;96857.00;;;;5082392;28;20203;-64
2023/05/14 02:36:13;;;;;;;5.33;3.77;;;;;12.60;96852.00;;;;5088816;28;20678;-64
2023/05/14 02:39:03;;;;;;;5.50;5.00;;;;;12.60;96849.00;;;;5084133;28;20200;-64
2023/05/14 02:41:52;;;;;;;4.43;4.03;;;;;12.50;96840.00;;;;5083446;28;20200;-64
2023/05/14 02:44:41;;;;;;;5.03;4.23;;;;;12.30;96838.00;;;;5087110;28;20257;-64
2023/05/14 02:47:31;;;;;;;5.47;4.63;;;;;12.30;96833.00;;;;5084538;28;20227;-64
2023/05/14 02:50:20;;;;;;;5.50;4.50;;;;;12.30;96824.00;;;;5079757;28;20237;-64
2023/05/14 02:53:10;;;;;;;5.27;4.77;;;;;12.20;96826.00;;;;5084512;28;20199;-64
2023/05/14 02:55:59;;;;;;;6.13;4.97;;;;;12.30;96825.00;;;;5082390;28;20230;-64
2023/05/14 02:58:48;;;;;;;5.83;4.67;;;;;12.40;96817.00;;;;5085488;28;20249;-64
2023/05/14 03:01:37;;;;;;;6.70;5.47;;;;;12.50;96818.00;;;;5082537;28;20191;-64
2023/05/14 03:04:27;;;;;;;7.07;4.90;;;;;12.50;96813.00;;;;5083618;28;20253;-64
2023/05/14 03:07:16;;;;;;;5.80;4.67;;;;;12.40;96817.00;;;;5082303;28;20234;-64
2023/05/14 03:10:06;;;;;;;5.40;4.73;;;;;12.20;96817.00;;;;5083562;28;20203;-64
2023/05/14 03:12:55;;;;;;;6.40;5.10;;;;;12.40;96832.00;;;;5082637;28;20711;-64
2023/05/14 03:15:45;;;;;;;6.23;4.87;;;;;12.50;96823.00;;;;5081878;28;20200;-64
2023/05/14 03:18:35;;;;;;;6.63;5.93;;;;;12.60;96824.00;;;;5082334;28;20229;-64
2023/05/14 03:21:26;;;;;;;7.53;5.83;;;;;12.60;96815.00;;;;5085207;28;20268;-64
2023/05/14 03:24:15;;;;;;;9.03;5.73;;;;;12.60;96820.00;;;;5085076;28;20548;-64
2023/05/14 03:27:04;;;;;;;7.97;6.53;;;;;12.50;96814.00;;;;5085107;28;20230;-64
2023/05/14 03:29:53;;;;;;;7.07;5.80;;;;;12.60;96805.00;;;;5082396;28;20211;-64
2023/05/14 03:32:42;;;;;;;9.73;6.63;;;;;12.60;96814.00;;;;5080127;28;20856;-64
2023/05/14 03:35:31;;;;;;;8.07;7.20;;;;;12.60;96819.00;;;;5085071;28;20574;-64
2023/05/14 03:38:22;;;;;;;8.27;6.30;;;;;12.70;96821.00;;;;5081865;28;20264;-64
2023/05/14 03:41:11;;;;;;;9.20;6.40;;;;;12.60;96819.00;;;;5081977;28;20696;-64
2023/05/14 03:44:00;;;;;;;7.33;6.60;;;;;12.70;96819.00;;;;5084370;28;20293;-64
2023/05/14 03:46:49;;;;;;;8.40;7.57;;;;;12.80;96820.00;;;;5083127;28;20697;-64
2023/05/14 03:49:38;;;;;;;9.57;8.20;;;;;12.80;96822.00;;;;5079397;28;20199;-64
2023/05/14 03:52:27;;;;;;;8.57;6.97;;;;;12.80;96824.00;;;;5083352;28;20333;-64
2023/05/14 03:55:17;;;;;;;13.10;9.17;;;;;12.80;96816.00;;;;5079564;28;20713;-64
2023/05/14 03:58:12;;;;;;;12.97;10.17;;;;;12.70;96815.00;;;;5083473;28;20239;-64
2023/05/14 04:01:01;;;;;;;14.53;10.70;;;;;12.70;96814.00;;;;5082260;28;20572;-64
2023/05/14 04:03:50;;;;;;;12.43;10.47;;;;;12.90;96820.00;;;;5082418;28;20198;-64
2023/05/14 04:06:39;;;;;;;14.90;11.33;;;;;12.80;96813.00;;;;5085158;28;20223;-65
2023/05/14 04:09:28;;;;;;;14.97;10.73;;;;;12.90;96819.00;;;;5083507;28;20202;-64
2023/05/14 04:12:19;;;;;;;12.83;10.30;;;;;12.90;96814.00;;;;5085689;28;20227;-64
2023/05/14 04:15:09;;;;;;;12.87;10.37;;;;;12.90;96814.00;;;;5086581;28;20756;-64
2023/05/14 04:17:58;;;;;;;15.47;11.13;;;;;12.70;96804.00;;;;5084875;28;20227;-64
2023/05/14 04:20:47;;;;;;;12.13;10.43;;;;;12.70;96804.00;;;;5083010;28;20204;-64
2023/05/14 04:23:36;;;;;;;14.80;10.30;;;;;12.60;96798.00;;;;5078654;28;20288;-64
2023/05/14 04:26:25;;;;;;;10.57;8.23;;;;;12.40;96811.00;;;;5083635;28;21178;-64
2023/05/14 04:29:15;;;;;;;10.30;8.00;;;;;12.20;96795.00;;;;5082939;28;20202;-64
2023/05/14 04:32:05;;;;;;;9.93;8.67;;;;;12.50;96797.00;;;;5085471;28;20226;-64
2023/05/14 04:34:54;;;;;;;12.93;8.93;;;;;12.40;96797.00;;;;5090288;28;20206;-64
2023/05/14 04:37:43;;;;;;;10.63;8.83;;;;;12.50;96791.00;;;;5086878;28;20288;-64
2023/05/14 04:40:32;;;;;;;12.30;8.97;;;;;12.50;96780.00;;;;5085821;28;20207;-64
2023/05/14 04:43:21;;;;;;;10.80;8.53;;;;;12.40;96792.00;;;;5081141;28;20188;-62
2023/05/14 04:46:12;;;;;;;11.73;9.70;;;;;12.20;96779.00;;;;5082653;28;20198;-63
2023/05/14 04:49:01;;;;;;;11.40;9.33;;;;;12.60;96787.00;;;;5082898;28;20204;-63
2023/05/14 04:51:50;;;;;;;12.87;9.07;;;;;12.80;96790.00;;;;5085723;28;20215;-63
2023/05/14 04:54:39;;;;;;;12.47;9.73;;;;;13.00;96786.00;;;;5087514;28;20199;-63
2023/05/14 04:57:28;;;;;;;11.60;9.30;;;;;13.00;96796.00;;;;5086309;28;20223;-63
2023/05/14 05:00:20;;;;;;;10.73;8.23;;;;;13.00;96781.00;;;;5086091;28;20211;-63
2023/05/14 05:03:11;;;;;;;14.87;8.33;;;;;13.00;96781.00;;;;5084653;28;20203;-62
2023/05/14 05:06:00;;;;;;;11.00;9.03;;;;;12.70;96766.00;;;;5088338;28;20702;-65
2023/05/14 05:08:49;;;;;;;12.37;10.17;;;;;12.50;96759.00;;;;5083776;28;20208;-64
2023/05/14 05:11:38;;;;;;;12.70;10.53;;;;;12.70;96764.00;;;;5087737;28;20219;-63
2023/05/14 05:14:27;;;;;;;14.67;10.63;;;;;12.80;96763.00;;;;5087726;28;20199;-63
2023/05/14 05:17:16;;;;;;;11.47;9.87;;;;;12.50;96757.00;;;;5083367;28;20215;-63
2023/05/14 05:20:09;;;;;;;12.77;9.37;;;;;12.60;96757.00;;;;5087241;28;20797;-64
2023/05/14 05:22:58;;;;;;;12.80;10.60;;;;;12.60;96749.00;;;;5086988;28;20214;-64
2023/05/14 05:25:47;;;;;;;14.43;10.73;;;;;12.80;96758.00;;;;5088094;28;20252;-63
2023/05/14 05:28:36;;;;;;;11.93;10.60;;;;;13.00;96752.00;;;;5075199;28;20227;-63
2023/05/14 05:31:25;;;;;;;14.20;10.33;;;;;12.90;96747.00;;;;5068662;28;20227;-64
2023/05/14 05:34:14;;;;;;;13.87;9.90;;;;;13.00;96750.00;;;;5069625;28;20570;-63
2023/05/14 05:37:05;;;;;;;12.87;10.57;;;;;13.00;96743.00;;;;5069689;28;20727;-64
2023/05/14 05:39:54;;;;;;;12.83;9.83;;;;;12.80;96735.00;;;;5067927;28;20196;-63
2023/05/14 05:42:43;;;;;;;11.53;10.10;;;;;12.70;96734.00;;;;5068534;28;20196;-63
2023/05/14 05:45:32;;;;;;;13.77;10.20;;;;;13.00;96742.00;;;;5068097;28;20210;-64
2023/05/14 05:48:21;;;;;;;15.27;10.47;;;;;13.20;96742.00;;;;5069074;28;20227;-64
2023/05/14 05:51:10;;;;;;;12.53;9.93;;;;;13.30;96725.00;;;;5067482;28;20207;-63
2023/05/14 05:54:01;;;;;;;11.37;9.43;;;;;13.30;96739.00;;;;5066422;28;20216;-63
2023/05/14 05:56:50;;;;;;;11.40;9.40;;;;;13.30;96736.00;;;;5069155;28;21718;-63
2023/05/14 05:59:39;;;;;;;10.80;9.70;;;;;13.40;96731.00;;;;5070150;28;20281;-66
2023/05/14 06:02:28;;;;;;;10.00;8.23;;;;;13.40;96736.00;;;;5068556;28;20485;-64
2023/05/14 06:05:18;;;;;;;10.27;9.20;;;;;13.20;96740.00;;;;5067582;28;20290;-64
2023/05/14 06:08:07;;;;;;;11.93;8.83;;;;;13.40;96730.00;;;;5067172;28;20223;-64
2023/05/14 06:10:57;;;;;;;13.33;9.67;;;;;13.50;96731.00;;;;5067811;28;20222;-63
2023/05/14 06:13:47;;;;;;;10.17;9.10;;;;;13.50;96729.00;;;;5070795;28;20257;-64
2023/05/14 06:16:36;;;;;;;8.77;7.87;;;;;13.60;96720.00;;;;5067917;28;20237;-63
2023/05/14 06:19:25;;;;;;;8.73;7.80;;;;;13.50;96723.00;;;;5068912;28;20205;-64
2023/05/14 06:22:15;;;;;;;9.70;8.57;;;;;13.50;96723.00;;;;5067041;28;20686;-64
2023/05/14 06:25:04;;;;;;;10.10;8.87;;;;;13.50;96721.00;;;;5067172;28;20710;-63
2023/05/14 06:27:54;;;;;;;9.33;8.13;;;;;13.60;96723.00;;;;5081407;28;20250;-64
2023/05/14 06:30:43;;;;;;;9.30;8.20;;;;;13.60;96721.00;;;;5103080;28;20202;-64
2023/05/14 06:33:32;;;;;;;10.93;8.10;;;;;13.60;96706.00;;;;5082455;28;20354;-63
2023/05/14 06:36:21;;;;;;;9.00;7.73;;;;;13.60;96713.00;;;;5077352;28;20249;-63
2023/05/14 06:39:11;;;;;;;7.60;6.53;;;;;13.50;96712.00;;;;5081872;28;20202;-63
2023/05/14 06:42:00;;;;;;;10.03;8.33;;;;;13.60;96716.00;;;;5091892;28;20204;-63
2023/05/14 06:44:50;;;;;;;7.70;7.00;;;;;13.50;96701.00;;;;5083763;28;20240;-64
2023/05/14 06:47:40;;;;;;;8.23;7.37;;;;;13.50;96699.00;;;;5080517;28;20215;-64
2023/05/14 06:50:29;;;;;;;10.10;8.90;;;;;13.50;96704.00;;;;5081684;28;20206;-63
2023/05/14 06:53:18;;;;;;;8.77;7.20;;;;;13.60;96702.00;;;;5086192;28;20299;-63
2023/05/14 06:56:07;;;;;;;9.53;8.00;;;;;13.70;96691.00;;;;5086132;28;20674;-64
2023/05/14 06:58:56;;;;;;;13.57;9.77;;;;;13.80;96695.00;;;;5094633;28;20717;-63
2023/05/14 07:01:46;;;;;;;8.53;6.97;;;;;13.70;96680.00;;;;5085390;28;20207;-63
2023/05/14 07:04:35;;;;;;;8.87;7.23;;;;;13.80;96677.00;;;;5088391;28;20199;-63
2023/05/14 07:07:24;;;;;;;7.67;6.70;;;;;13.70;96676.00;;;;5083098;28;20222;-62
2023/05/14 07:10:13;;;;;;;10.07;8.43;;;;;13.50;96676.00;;;;5079200;28;20214;-64
2023/05/14 07:13:03;;;;;;;8.37;7.53;;;;;13.30;96674.00;;;;5085908;28;20222;-63
2023/05/14 07:15:54;;;;;;;9.13;8.07;;;;;13.40;96681.00;;;;5087704;28;20213;-63
2023/05/14 07:18:45;;;;;;;8.80;7.90;;;;;13.30;96676.00;;;;5080245;28;20203;-64
2023/05/14 07:21:35;;;;;;;8.13;7.40;;;;;13.30;96669.00;;;;5087404;28;20206;-64
2023/05/14 07:24:24;;;;;;;12.70;8.90;;;;;13.40;96668.00;;;;5084633;28;20215;-64
2023/05/14 07:27:13;;;;;;;8.67;7.53;;;;;13.40;96675.00;;;;5082690;28;20212;-63
2023/05/14 07:30:03;;;;;;;8.47;7.53;;;;;13.60;96673.00;;;;5084640;28;20689;-63
2023/05/14 07:32:52;;;;;;;7.77;6.97;;;;;13.50;96675.00;;;;5083707;28;20215;-64
2023/05/14 07:35:42;;;;;;;8.33;7.53;;;;;13.60;96682.00;;;;5086280;28;20207;-63
2023/05/14 07:38:31;;;;;;;7.63;6.80;;;;;13.80;96689.00;;;;5088692;28;20260;-63
2023/05/14 07:41:20;;;;;;;7.97;6.80;;;;;13.90;96672.00;;;;5084805;28;20211;-63
2023/05/14 07:44:09;;;;;;;7.83;6.80;;;;;13.90;96674.00;;;;5100798;28;20191;-64
2023/05/14 07:46:58;;;;;;;8.63;7.23;;;;;13.90;96674.00;;;;5082888;28;20254;-63
2023/05/14 07:49:47;;;;;;;7.27;6.60;;;;;14.00;96676.00;;;;5086166;28;20697;-62
2023/05/14 07:52:38;;;;;;;10.93;7.97;;;;;14.00;96669.00;;;;5080896;28;20216;-63
2023/05/14 07:55:27;;;;;;;7.90;7.10;;;;;14.00;96668.00;;;;5088122;28;20208;-63
2023/05/14 07:58:16;;;;;;;8.53;6.53;;;;;14.00;96667.00;;;;5079691;28;20235;-63
2023/05/14 08:01:07;;;;;;;6.70;6.10;;;;;13.90;96670.00;;;;5080204;28;20716;-63
2023/05/14 08:03:56;;;;;;;6.77;5.53;;;;;13.80;96653.00;;;;5085862;28;20226;-63
2023/05/14 08:06:45;;;;;;;8.97;5.90;;;;;13.80;96655.00;;;;5100232;28;20313;-63
2023/05/14 08:09:36;;;;;;;9.23;6.43;;;;;13.60;96643.00;;;;5094659;28;20202;-62
2023/05/14 08:12:25;;;;;;;6.23;5.63;;;;;13.80;96647.00;;;;5088705;28;20652;-63
2023/05/14 08:15:14;;;;;;;11.10;5.70;;;;;13.60;96636.00;;;;5078725;28;20203;-63
2023/05/14 08:18:03;;;;;;;8.43;4.90;;;;;13.70;96633.00;;;;5081535;28;20698;-63
2023/05/14 08:20:52;;;;;;;4.77;4.27;;;;;13.90;96630.00;;;;5083372;28;20214;-64
2023/05/14 08:23:41;;;;;;;4.87;4.40;;;;;13.90;96622.00;;;;5090010;28;20211;-63
2023/05/14 08:26:32;;;;;;;6.23;4.50;;;;;13.70;96631.00;;;;5091431;28;20223;-63
2023/05/14 08:29:21;;;;;;;5.47;5.00;;;;;13.90;96621.00;;;;5078980;28;20203;-63
2023/05/14 08:32:10;;;;;;;4.70;4.30;;;;;13.80;96614.00;;;;5086059;28;20202;-63
2023/05/14 08:35:03;;;;;;;5.67;5.17;;;;;13.60;96621.00;;;;5086846;28;20208;-64
2023/05/14 08:37:52;;;;;;;5.33;4.83;;;;;13.70;96620.00;;;;5084938;28;20223;-64
2023/05/14 08:40:41;;;;;;;5.30;4.80;;;;;13.80;96608.00;;;;5082570;28;20259;-63
2023/05/14 08:43:42;;;;;;;6.73;5.53;;;;;13.90;96609.00;;;;5084299;28;20199;-63
2023/05/14 08:46:32;;;;;;;4.70;4.30;;;;;13.60;96614.00;;;;5077948;28;20225;-64
2023/05/14 08:49:28;;;;;;;5.70;3.60;;;;;14.00;96607.00;;;;5082800;28;20203;-64
2023/05/14 08:52:19;;;;;;;4.60;3.80;;;;;14.10;96596.00;;;;5083074;28;20204;-64
2023/05/14 08:55:08;;;;;;;4.10;3.80;;;;;14.10;96588.00;;;;5081964;28;20814;-64
2023/05/14 08:57:57;;;;;;;3.40;2.93;;;;;14.10;96595.00;;;;5085294;28;20852;-64
2023/05/14 09:00:48;;;;;;;3.07;2.80;;;;;14.10;96590.00;;;;5080765;28;20195;-64
2023/05/14 09:03:37;;;;;;;3.00;2.73;;;;;14.50;96586.00;;;;5084499;28;20203;-64
2023/05/14 09:06:26;;;;;;;3.93;3.63;;;;;14.80;96585.00;;;;5082707;28;20210;-64
2023/05/14 09:09:16;;;;;;;3.83;3.43;;;;;14.80;96590.00;;;;5085397;28;20580;-63
2023/05/14 09:12:05;;;;;;;5.23;4.13;;;;;14.80;96581.00;;;;5085548;28;20203;-65
2023/05/14 09:14:54;;;;;;;4.23;3.87;;;;;14.70;96588.00;;;;5086920;28;20247;-63
2023/05/14 09:17:46;;;;;;;4.30;3.83;;;;;14.90;96582.00;;;;5084074;28;20261;-64
2023/05/14 09:20:35;;;;;;;5.17;4.60;;;;;15.20;96577.00;;;;5087200;28;20200;-64
2023/05/14 09:23:26;;;;;;;3.40;3.10;;;;;14.80;96579.00;;;;5079214;28;20226;-64
2023/05/14 09:26:18;;;;;;;2.87;2.67;;;;;14.80;96567.00;;;;5097763;28;20206;-64
2023/05/14 09:29:07;;;;;;;2.67;2.47;;;;;15.10;96570.00;;;;5105379;28;20253;-64
2023/05/14 09:31:57;;;;;;;4.43;3.10;;;;;15.20;96576.00;;;;5094437;28;20212;-64
2023/05/14 09:34:47;;;;;;;3.50;3.20;;;;;15.30;96575.00;;;;5084513;28;20771;-64
2023/05/14 09:37:37;;;;;;;3.60;3.30;;;;;15.40;96573.00;;;;5085917;28;20747;-64
2023/05/14 09:40:26;;;;;;;4.20;3.80;;;;;15.40;96585.00;;;;5091148;28;20704;-64
2023/05/14 09:43:15;;;;;;;6.20;4.27;;;;;15.40;96584.00;;;;5092686;28;20198;-64
2023/05/14 09:46:04;;;;;;;4.13;3.73;;;;;15.40;96576.00;;;;5089984;28;20205;-64
2023/05/14 09:48:53;;;;;;;5.43;4.97;;;;;15.20;96564.00;;;;5091941;28;20200;-64
2023/05/14 09:51:44;;;;;;;6.27;4.43;;;;;15.20;96566.00;;;;5089198;28;20204;-64
2023/05/14 09:54:34;;;;;;;4.53;4.13;;;;;15.30;96559.00;;;;5089146;28;20232;-63
2023/05/14 09:57:23;;;;;;;5.43;4.93;;;;;15.10;96555.00;;;;5088710;28;20255;-64
2023/05/14 10:00:13;;;;;;;4.07;3.73;;;;;15.00;96554.00;;;;5087664;28;20591;-64
2023/05/14 10:03:05;;;;;;;4.97;4.57;;;;;14.90;96555.00;;;;5090469;28;20210;-64
2023/05/14 10:05:57;;;;;;;7.27;4.10;;;;;15.10;96536.00;;;;5088389;28;20203;-64
2023/05/14 10:08:50;;;;;;;4.73;4.33;;;;;15.40;96524.00;;;;5085849;28;20257;-64
2023/05/14 10:11:41;;;;;;;9.30;4.23;;;;;15.50;96521.00;;;;5082084;28;21500;-64
2023/05/14 10:14:36;;;;;;;7.47;5.60;;;;;15.30;96522.00;;;;5069901;28;20291;-64
2023/05/14 10:17:27;;;;;;;5.63;5.07;;;;;15.20;96508.00;;;;5077373;28;20223;-63
2023/05/14 10:20:16;;;;;;;5.10;4.60;;;;;15.30;96521.00;;;;5081818;28;20202;-64
2023/05/14 10:23:06;;;;;;;7.10;4.83;;;;;15.20;96510.00;;;;5086796;28;20199;-64
2023/05/14 10:25:57;;;;;;;6.33;5.30;;;;;16.00;96517.00;;;;5084429;28;20199;-64
2023/05/14 10:28:46;;;;;;;5.40;4.50;;;;;16.50;96514.00;;;;5089107;28;20198;-64
2023/05/14 10:31:46;;;;;;;4.50;3.07;;;;;16.30;96514.00;;;;5084973;28;20208;-63
2023/05/14 10:34:41;;;;;;;2.37;2.20;;;;;16.30;96511.00;;;;5082523;28;20226;-63
2023/05/14 10:37:31;;;;;;;2.03;1.80;;;;;16.20;96517.00;;;;5087452;28;20230;-64
2023/05/14 10:40:20;;;;;;;1.70;1.60;;;;;16.60;96506.00;;;;5090057;28;20202;-64
2023/05/14 10:43:12;;;;;;;1.70;1.60;;;;;15.90;96503.00;;;;5095992;28;20211;-63
2023/05/14 10:46:03;;;;;;;1.33;1.23;;;;;15.70;96502.00;;;;5088004;28;20213;-64
2023/05/14 10:48:53;;;;;;;1.50;1.40;;;;;15.60;96497.00;;;;5088873;28;20245;-64
2023/05/14 10:51:42;;;;;;;1.53;1.43;;;;;15.90;96491.00;;;;5090581;28;20196;-64
2023/05/14 10:54:36;;;;;;;3.10;1.67;;;;;16.00;96484.00;;;;5091109;28;20602;-64
2023/05/14 10:57:27;;;;;;;1.23;1.13;;;;;15.70;96488.00;;;;5088097;28;20211;-63
2023/05/14 11:00:18;;;;;;;1.53;1.03;;;;;15.50;96483.00;;;;5083583;28;20214;-64
2023/05/14 11:03:07;;;;;;;1.40;1.30;;;;;15.20;96471.00;;;;5085104;28;20203;-64
2023/05/14 11:05:57;;;;;;;1.40;1.10;;;;;15.50;96473.00;;;;5085018;28;20207;-64
2023/05/14 11:08:46;;;;;;;1.63;1.00;;;;;15.70;96454.00;;;;5086501;28;20199;-64
2023/05/14 11:11:36;;;;;;;1.37;1.17;;;;;15.90;96447.00;;;;5084694;28;20199;-64
2023/05/14 11:14:25;;;;;;;1.63;0.97;;;;;15.90;96437.00;;;;5084119;28;20214;-64
2023/05/14 11:17:15;;;;;;;1.27;1.17;;;;;15.90;96426.00;;;;5082683;28;20227;-64
2023/05/14 11:20:06;;;;;;;1.97;1.00;;;;;16.10;96422.00;;;;5086100;28;20607;-64
2023/05/14 11:22:55;;;;;;;1.00;1.00;;;;;16.10;96427.00;;;;5082913;28;20227;-64
2023/05/14 11:25:44;;;;;;;2.43;1.13;;;;;16.20;96423.00;;;;5086782;28;20228;-64
2023/05/14 11:28:33;;;;;;;3.13;1.30;;;;;16.40;96411.00;;;;5081721;28;20230;-64
2023/05/14 11:31:22;;;;;;;1.30;1.20;;;;;16.50;96413.00;;;;5093397;28;20254;-64
2023/05/14 11:34:13;;;;;;;0.80;0.80;;;;;16.40;96421.00;;;;5081077;28;20574;-64
2023/05/14 11:37:04;;;;;;;0.93;0.93;;;;;16.20;96432.00;;;;5075819;28;20605;-64
2023/05/14 11:39:54;;;;;;;1.20;1.10;;;;;16.20;96431.00;;;;5082616;28;20586;-64
2023/05/14 11:42:43;;;;;;;1.40;1.10;;;;;16.10;96425.00;;;;5091925;28;20242;-64
2023/05/14 11:45:32;;;;;;;2.97;1.17;;;;;15.70;96432.00;;;;5072766;28;20199;-64
2023/05/14 11:48:22;;;;;;;1.20;1.10;;;;;15.80;96434.00;;;;5081323;28;20296;-64
2023/05/14 11:51:12;;;;;;;1.37;1.23;;;;;15.80;96423.00;;;;5088554;28;20199;-64
2023/05/14 11:54:02;;;;;;;3.70;1.47;;;;;15.80;96425.00;;;;5094656;28;20754;-64
2023/05/14 11:56:52;;;;;;;2.40;1.53;;;;;15.80;96419.00;;;;5079145;28;20578;-64
2023/05/14 11:59:41;;;;;;;1.67;1.30;;;;;15.70;96410.00;;;;5083096;28;20302;-64
2023/05/14 12:02:31;;;;;;;1.33;1.10;;;;;15.70;96414.00;;;;5088953;28;20211;-64
2023/05/14 12:05:20;;;;;;;1.23;1.07;;;;;15.40;96412.00;;;;5093988;28;20191;-63
2023/05/14 12:08:25;;;;;;;2.20;1.07;;;;;15.60;96418.00;;;;5101138;28;20222;-63
2023/05/14 12:11:14;;;;;;;1.30;1.20;;;;;15.50;96403.00;;;;5088553;28;20210;-64
2023/05/14 12:14:12;;;;;;;6.37;4.10;;;;;15.50;96401.00;;;;5085814;28;20203;-64
2023/05/14 12:17:02;;;;;;;5.53;2.53;;;;;15.60;96400.00;;;;5078065;28;20219;-64
2023/05/14 12:19:52;;;;;;;3.13;1.80;;;;;15.50;96398.00;;;;5085429;28;20219;-63
2023/05/14 12:22:42;;;;;;;2.20;1.57;;;;;15.30;96402.00;;;;5090446;28;20211;-63
2023/05/14 12:25:32;;;;;;;1.53;1.17;;;;;15.10;96407.00;;;;5081176;28;20199;-64
2023/05/14 12:28:23;;;;;;;1.00;1.00;;;;;14.40;96399.00;;;;5081240;28;20219;-64
2023/05/14 12:31:12;;;;;;;0.77;0.77;;;;;14.10;96401.00;;;;5080661;28;20681;-64
2023/05/14 12:34:02;;;;;;;1.30;0.87;;;;;14.30;96404.00;;;;5080463;28;20206;-64
2023/05/14 12:36:51;;;;;;;0.90;0.90;;;;;13.50;96391.00;;;;5074968;28;20688;-65
2023/05/14 12:39:40;;;;;;;1.27;1.17;;;;;13.80;96396.00;;;;5074222;28;20333;-64
2023/05/14 12:42:30;;;;;;;1.30;0.80;;;;;13.80;96400.00;;;;5088876;28;20234;-64
2023/05/14 12:45:19;;;;;;;1.43;0.73;;;;;13.80;96401.00;;;;5098977;28;20547;-64
2023/05/14 12:48:08;;;;;;;0.60;0.60;;;;;13.40;96396.00;;;;5098636;28;20222;-64
2023/05/14 12:50:57;;;;;;;1.03;0.93;;;;;14.10;96395.00;;;;5095782;28;20214;-64
2023/05/14 12:53:47;;;;;;;5.23;0.97;;;;;14.20;96421.00;;;;5095351;28;20310;-64
2023/05/14 12:56:36;;;;;;;4.57;0.73;;;;;14.30;96429.00;;;;5091518;28;20215;-64
2023/05/14 12:59:27;;;;;;;3.47;0.80;;;;;13.90;96430.00;;;;5085921;28;20223;-64
2023/05/14 13:02:16;;;;;;;0.37;0.37;;;;;13.60;96430.00;;;;5085042;28;20704;-65
2023/05/14 13:05:06;;;;;;;4.87;1.03;;;;;14.00;96420.00;;;;5093813;28;20207;-65
2023/05/14 13:07:59;;;;;;;0.90;0.67;;;;;14.20;96422.00;;;;5098318;28;20266;-65
2023/05/14 13:10:48;;;;;;;2.13;0.70;;;;;14.20;96420.00;;;;5088528;28;20576;-65
2023/05/14 13:13:37;;;;;;;0.50;0.50;;;;;14.30;96417.00;;;;5102733;28;20202;-64
2023/05/14 13:16:28;;;;;;;0.50;0.50;;;;;14.20;96421.00;;;;5103088;28;20254;-64
2023/05/14 13:19:17;;;;;;;0.97;0.60;;;;;14.30;96400.00;;;;5099659;28;20203;-64
2023/05/14 13:22:06;;;;;;;1.93;0.73;;;;;14.40;96395.00;;;;5101170;28;20237;-64
2023/05/14 13:24:55;;;;;;;0.67;0.67;;;;;14.40;96391.00;;;;5097406;28;20203;-64
2023/05/14 13:27:44;;;;;;;0.87;0.67;;;;;14.00;96390.00;;;;5093419;28;20222;-64
2023/05/14 13:30:33;;;;;;;0.50;0.40;;;;;13.90;96398.00;;;;5083809;28;20222;-64
2023/05/14 13:33:23;;;;;;;0.80;0.80;;;;;13.40;96399.00;;;;5080333;28;20203;-64
2023/05/14 13:36:14;;;;;;;0.63;0.63;;;;;13.40;96412.00;;;;5088330;28;20225;-63
2023/05/14 13:39:03;;;;;;;0.57;0.57;;;;;13.00;96399.00;;;;5092811;28;20235;-64
2023/05/14 13:41:54;;;;;;;1.07;0.43;;;;;13.10;96393.00;;;;5099068;28;20698;-62
2023/05/14 13:44:43;;;;;;;0.50;0.50;;;;;13.00;96390.00;;;;5089717;28;20206;-63
2023/05/14 13:47:32;;;;;;;0.60;0.60;;;;;13.10;96386.00;;;;5085456;28;20223;-63
2023/05/14 13:50:23;;;;;;;0.47;0.47;;;;;13.30;96387.00;;;;5084387;28;20203;-64
2023/05/14 13:53:12;;;;;;;0.53;0.53;;;;;13.40;96389.00;;;;5092119;28;20579;-63
2023/05/14 13:56:01;;;;;;;0.50;0.47;;;;;12.90;96387.00;;;;5085445;28;20694;-62
2023/05/14 13:58:50;;;;;;;0.40;0.40;;;;;12.70;96383.00;;;;5087199;28;20233;-61
2023/05/14 14:01:41;;;;;;;0.50;0.43;;;;;12.70;96382.00;;;;5090052;28;20212;-63
2023/05/14 14:04:31;;;;;;;1.57;1.27;;;;;12.80;96377.00;;;;5086595;28;20241;-63
2023/05/14 14:07:21;;;;;;;2.67;2.20;;;;;13.20;96364.00;;;;5077487;28;20214;-63